createdAt,value
2023-05-09T00:00:18.444Z,16.58
2023-05-09T00:02:46.844Z,16.90
2023-05-09T00:05:16.094Z,16.90
2023-05-09T00:07:45.690Z,16.75
2023-05-09T00:10:15.770Z,16.88
2023-05-09T00:12:44.234Z,15.97
2023-05-09T00:15:13.859Z,16.88
2023-05-09T00:17:42.965Z,16.47
2023-05-09T00:20:12.525Z,16.65
2023-05-09T00:22:41.964Z,15.70
2023-05-09T00:25:12.664Z,14.95
2023-05-09T00:27:47.122Z,14.98
2023-05-09T00:30:16.039Z,15.05
2023-05-09T00:32:45.199Z,15.55
2023-05-09T00:35:13.808Z,14.73
2023-05-09T00:37:42.335Z,14.15
2023-05-09T00:40:12.122Z,14.27
2023-05-09T00:42:42.568Z,14.20
2023-05-09T00:45:12.830Z,13.82
2023-05-09T00:47:44.345Z,13.13
2023-05-09T00:50:13.880Z,13.27
2023-05-09T00:52:46.314Z,13.83
2023-05-09T00:55:16.526Z,12.80
2023-05-09T00:57:47.067Z,12.98
2023-05-09T01:00:16.834Z,12.70
2023-05-09T01:02:48.021Z,12.77
2023-05-09T01:05:17.133Z,12.67
2023-05-09T01:07:53.434Z,12.60
2023-05-09T01:10:32.630Z,13.07
2023-05-09T01:13:07.581Z,13.27
2023-05-09T01:15:41.169Z,13.43
2023-05-09T01:18:17.211Z,13.23
2023-05-09T01:20:50.549Z,13.57
2023-05-09T01:23:55.773Z,13.07
2023-05-09T01:26:36.611Z,12.90
2023-05-09T01:29:38.624Z,12.97
2023-05-09T01:32:11.123Z,13.57
2023-05-09T01:34:45.488Z,13.40
2023-05-09T01:37:16.423Z,12.87
2023-05-09T01:39:50.344Z,13.43
2023-05-09T01:42:22.213Z,13.53
2023-05-09T01:44:53.189Z,13.70
2023-05-09T01:47:23.257Z,13.27
2023-05-09T01:49:53.744Z,13.80
2023-05-09T01:52:22.788Z,13.30
2023-05-09T01:54:52.865Z,13.63
2023-05-09T01:57:22.127Z,13.37
2023-05-09T01:59:53.823Z,14.00
2023-05-09T02:02:22.983Z,14.00
2023-05-09T02:04:52.093Z,13.10
2023-05-09T02:07:22.101Z,13.70
2023-05-09T02:09:52.138Z,14.83
2023-05-09T02:12:20.930Z,15.03
2023-05-09T02:14:50.993Z,14.00
2023-05-09T02:17:19.646Z,14.83
2023-05-09T02:19:47.868Z,15.33
2023-05-09T02:22:16.965Z,15.00
2023-05-09T02:24:46.390Z,13.70
2023-05-09T02:27:15.970Z,13.43
2023-05-09T02:29:49.724Z,12.90
2023-05-09T02:32:25.836Z,11.87
2023-05-09T02:34:56.670Z,11.23
2023-05-09T02:37:26.206Z,12.33
2023-05-09T02:39:54.876Z,12.77
2023-05-09T02:42:26.130Z,12.20
2023-05-09T02:44:54.807Z,12.83
2023-05-09T02:47:25.800Z,12.53
2023-05-09T02:49:54.217Z,12.70
2023-05-09T02:52:22.966Z,12.67
2023-05-09T02:54:51.133Z,12.95
2023-05-09T02:57:19.820Z,12.80
2023-05-09T02:59:48.460Z,13.17
2023-05-09T03:02:18.038Z,13.37
2023-05-09T03:04:48.375Z,14.23
2023-05-09T03:07:19.535Z,15.25
2023-05-09T03:09:47.979Z,16.10
2023-05-09T03:12:16.628Z,16.43
2023-05-09T03:14:44.795Z,16.50
2023-05-09T03:17:13.062Z,15.53
2023-05-09T03:19:41.297Z,16.90
2023-05-09T03:22:11.758Z,17.73
2023-05-09T03:24:40.670Z,17.20
2023-05-09T03:27:09.194Z,16.80
2023-05-09T03:29:37.629Z,15.53
2023-05-09T03:32:06.583Z,16.10
2023-05-09T03:34:34.808Z,16.47
2023-05-09T03:37:03.202Z,16.50
2023-05-09T03:39:32.915Z,16.17
2023-05-09T03:42:01.061Z,15.63
2023-05-09T03:44:29.377Z,16.37
2023-05-09T03:47:00.041Z,15.88
2023-05-09T03:49:29.078Z,17.03
2023-05-09T03:51:57.334Z,16.30
2023-05-09T03:54:28.304Z,16.13
2023-05-09T03:56:57.889Z,16.60
2023-05-09T03:59:26.460Z,16.97
2023-05-09T04:01:55.146Z,16.03
2023-05-09T04:04:24.058Z,16.30
2023-05-09T04:06:52.467Z,17.30
2023-05-09T04:09:21.211Z,16.87
2023-05-09T04:11:49.819Z,16.50
2023-05-09T04:14:22.289Z,15.57
2023-05-09T04:16:50.529Z,17.03
2023-05-09T04:19:18.673Z,16.08
2023-05-09T04:21:46.840Z,16.70
2023-05-09T04:24:15.378Z,17.03
2023-05-09T04:26:46.787Z,16.90
2023-05-09T04:29:15.063Z,17.30
2023-05-09T04:31:44.892Z,18.40
2023-05-09T04:34:13.719Z,17.83
2023-05-09T04:36:44.184Z,16.13
2023-05-09T04:39:12.886Z,16.80
2023-05-09T04:41:43.770Z,17.00
2023-05-09T04:44:12.386Z,15.90
2023-05-09T04:46:43.913Z,17.02
2023-05-09T04:49:13.932Z,17.42
2023-05-09T04:51:44.739Z,16.83
2023-05-09T04:54:13.272Z,16.75
2023-05-09T04:56:41.962Z,17.05
2023-05-09T04:59:10.225Z,17.47
2023-05-09T05:01:38.576Z,17.37
2023-05-09T05:04:06.871Z,16.85
2023-05-09T05:06:37.019Z,17.73
2023-05-09T05:09:06.162Z,17.33
2023-05-09T05:11:34.524Z,16.33
2023-05-09T05:14:03.050Z,18.42
2023-05-09T05:16:31.251Z,17.40
2023-05-09T05:18:59.818Z,17.40
2023-05-09T05:21:28.128Z,16.27
2023-05-09T05:23:58.160Z,15.85
2023-05-09T05:26:26.829Z,14.47
2023-05-09T05:28:59.069Z,13.73
2023-05-09T05:31:27.935Z,14.43
2023-05-09T05:34:03.345Z,14.60
2023-05-09T05:36:32.817Z,14.63
2023-05-09T05:39:02.874Z,14.75
2023-05-09T05:41:31.762Z,15.68
2023-05-09T05:44:01.290Z,14.57
2023-05-09T05:46:29.887Z,14.40
2023-05-09T05:48:58.215Z,13.63
2023-05-09T05:51:26.360Z,13.27
2023-05-09T05:53:54.528Z,15.00
2023-05-09T05:56:29.305Z,14.17
2023-05-09T05:59:01.551Z,14.68
2023-05-09T06:01:30.281Z,13.77
2023-05-09T06:03:58.869Z,14.00
2023-05-09T06:06:28.540Z,14.67
2023-05-09T06:08:57.445Z,15.27
2023-05-09T06:11:27.413Z,14.82
2023-05-09T06:13:55.625Z,15.10
2023-05-09T06:16:24.038Z,15.15
2023-05-09T06:18:55.786Z,15.23
2023-05-09T06:21:27.715Z,16.25
2023-05-09T06:24:05.013Z,15.00
2023-05-09T06:26:40.635Z,15.38
2023-05-09T06:29:09.104Z,16.30
2023-05-09T06:31:41.426Z,14.90
2023-05-09T06:34:09.722Z,15.07
2023-05-09T06:36:37.924Z,15.45
2023-05-09T06:39:06.307Z,15.27
2023-05-09T06:41:34.497Z,16.15
2023-05-09T06:44:04.683Z,16.65
2023-05-09T06:46:33.128Z,15.97
2023-05-09T06:49:02.758Z,14.93
2023-05-09T06:51:31.421Z,16.63
2023-05-09T06:54:00.091Z,16.05
2023-05-09T07:10:50.375Z,17.00
2023-05-09T07:13:48.023Z,18.02
2023-05-09T07:16:18.273Z,16.38
2023-05-09T07:18:50.034Z,18.48
2023-05-09T07:21:20.541Z,18.55
2023-05-09T07:23:48.858Z,20.77
2023-05-09T07:26:17.248Z,19.60
2023-05-09T07:28:47.042Z,17.58
2023-05-09T07:31:15.375Z,17.23
2023-05-09T07:33:44.400Z,17.55
2023-05-09T07:36:14.825Z,17.23
2023-05-09T07:38:43.353Z,16.13
2023-05-09T07:41:11.617Z,17.67
2023-05-09T07:43:40.511Z,16.27
2023-05-09T07:46:16.678Z,16.33
2023-05-09T07:48:45.326Z,15.50
2023-05-09T07:51:14.375Z,16.42
2023-05-09T07:53:43.092Z,16.73
2023-05-09T07:56:14.708Z,15.02
2023-05-09T07:58:43.069Z,16.45
2023-05-09T08:01:12.767Z,15.93
2023-05-09T08:03:41.536Z,14.07
2023-05-09T08:06:12.596Z,15.35
2023-05-09T08:08:41.111Z,15.38
2023-05-09T08:11:09.345Z,15.43
2023-05-09T08:13:37.908Z,15.55
2023-05-09T08:16:06.881Z,15.85
2023-05-09T08:18:36.792Z,15.13
2023-05-09T08:21:05.330Z,15.43
2023-05-09T08:23:33.572Z,15.50
2023-05-09T08:26:02.024Z,15.50
2023-05-09T08:28:30.585Z,15.93
2023-05-09T08:30:59.103Z,16.25
2023-05-09T08:33:27.555Z,14.23
2023-05-09T08:35:57.498Z,14.63
2023-05-09T08:38:26.133Z,14.60
2023-05-09T08:40:54.506Z,15.10
2023-05-09T08:43:25.131Z,13.45
2023-05-09T08:45:58.669Z,14.18
2023-05-09T08:48:28.050Z,13.77
2023-05-09T08:50:58.594Z,13.00
2023-05-09T08:53:27.090Z,13.23
2023-05-09T08:55:55.742Z,13.77
2023-05-09T08:58:24.346Z,12.73
2023-05-09T09:00:52.734Z,12.27
2023-05-09T09:03:21.637Z,11.93
2023-05-09T09:05:51.357Z,12.20
2023-05-09T09:18:05.327Z,10.70
2023-05-09T09:20:36.886Z,12.52
2023-05-09T09:23:12.792Z,13.45
2023-05-09T09:25:41.082Z,12.35
2023-05-09T09:28:09.467Z,11.15
2023-05-09T09:30:45.523Z,11.82
2023-05-09T09:33:22.500Z,10.50
2023-05-09T09:35:55.504Z,10.57
2023-05-09T09:38:26.935Z,11.77
2023-05-09T09:40:56.657Z,11.60
2023-05-09T09:43:33.886Z,10.73
2023-05-09T09:46:03.533Z,11.00
2023-05-09T09:48:34.882Z,9.77
2023-05-09T09:51:11.489Z,10.95
2023-05-09T09:53:44.455Z,9.88
2023-05-09T09:56:12.834Z,9.60
2023-05-09T09:58:41.466Z,9.85
2023-05-09T10:01:13.894Z,9.98
2023-05-09T10:03:44.168Z,9.38
2023-05-09T10:06:15.975Z,10.10
2023-05-09T10:08:48.866Z,10.13
2023-05-09T10:11:17.209Z,7.85
2023-05-09T10:13:46.606Z,6.97
2023-05-09T10:16:16.053Z,6.90
2023-05-09T10:18:44.683Z,8.25
2023-05-09T10:21:16.995Z,9.13
2023-05-09T10:23:49.891Z,7.57
2023-05-09T10:26:31.243Z,5.90
2023-05-09T10:29:03.288Z,7.05
2023-05-09T10:31:36.136Z,6.28
2023-05-09T10:34:12.331Z,7.43
2023-05-09T10:36:42.538Z,6.78
2023-05-09T10:39:11.340Z,6.35
2023-05-09T10:41:41.177Z,7.38
2023-05-09T10:44:09.478Z,6.32
2023-05-09T10:46:38.836Z,5.90
2023-05-09T10:49:08.215Z,5.93
2023-05-09T10:51:39.233Z,5.93
2023-05-09T10:54:17.238Z,4.85
2023-05-09T10:56:45.702Z,4.28
2023-05-09T10:59:41.375Z,4.38
2023-05-09T11:02:15.653Z,4.82
2023-05-09T11:04:44.645Z,5.20
2023-05-09T11:07:36.701Z,5.15
2023-05-09T11:10:18.010Z,5.35
2023-05-09T11:12:58.361Z,5.30
2023-05-09T11:15:27.985Z,4.95
2023-05-09T11:18:08.351Z,5.30
2023-05-09T11:20:37.671Z,5.50
2023-05-09T11:23:07.186Z,5.10
2023-05-09T11:25:36.824Z,5.25
2023-05-09T11:28:05.431Z,5.22
2023-05-09T11:30:43.401Z,4.70
2023-05-09T11:33:24.211Z,4.70
2023-05-09T11:36:18.521Z,5.00
2023-05-09T11:38:47.908Z,4.75
2023-05-09T11:41:17.719Z,4.85
2023-05-09T11:43:46.383Z,5.10
2023-05-09T11:46:15.161Z,4.50
2023-05-09T11:48:43.507Z,4.20
2023-05-09T11:51:19.188Z,3.85
2023-05-09T11:53:51.388Z,3.75
2023-05-09T11:56:23.260Z,3.75
2023-05-09T11:58:53.445Z,3.53
2023-05-09T12:01:22.633Z,3.90
2023-05-09T12:03:52.645Z,4.28
2023-05-09T12:06:21.386Z,4.07
2023-05-09T12:08:50.576Z,3.92
2023-05-09T12:11:21.396Z,4.57
2023-05-09T12:13:50.810Z,4.30
2023-05-09T12:16:21.056Z,4.22
2023-05-09T12:18:51.719Z,4.43
2023-05-09T12:21:20.867Z,4.93
2023-05-09T12:23:51.762Z,4.68
2023-05-09T12:26:23.460Z,4.50
2023-05-09T12:28:53.303Z,4.82
2023-05-09T12:31:22.433Z,4.72
2023-05-09T12:33:50.832Z,5.57
2023-05-09T12:36:19.081Z,5.05
2023-05-09T12:38:54.922Z,4.78
2023-05-09T12:43:56.107Z,5.43
2023-05-09T12:46:27.739Z,4.88
2023-05-09T12:48:56.506Z,4.93
2023-05-09T12:51:25.844Z,5.50
2023-05-09T12:53:54.157Z,4.93
2023-05-09T12:56:24.489Z,5.05
2023-05-09T12:58:55.125Z,5.72
2023-05-09T13:01:29.381Z,6.18
2023-05-09T13:04:03.969Z,5.72
2023-05-09T13:06:32.939Z,5.95
2023-05-09T13:09:03.012Z,5.22
2023-05-09T13:11:33.460Z,5.13
2023-05-09T13:14:03.254Z,4.85
2023-05-09T13:16:31.644Z,5.25
2023-05-09T13:19:01.563Z,4.70
2023-05-09T13:21:29.935Z,5.05
2023-05-09T13:23:58.198Z,4.80
2023-05-09T13:26:27.364Z,5.15
2023-05-09T13:28:57.294Z,4.90
2023-05-09T13:31:26.324Z,4.90
2023-05-09T13:33:54.661Z,4.72
2023-05-09T13:36:26.089Z,4.70
2023-05-09T13:38:54.644Z,4.57
2023-05-09T13:41:24.023Z,4.40
2023-05-09T13:43:52.672Z,4.28
2023-05-09T13:46:22.496Z,4.18
2023-05-09T13:48:50.691Z,4.35
2023-05-09T13:51:18.886Z,4.03
2023-05-09T13:53:47.757Z,4.07
2023-05-09T13:56:19.555Z,3.40
2023-05-09T13:58:47.877Z,3.63
2023-05-09T14:01:16.058Z,3.60
2023-05-09T14:03:47.215Z,3.80
2023-05-09T14:06:15.592Z,3.38
2023-05-09T14:08:44.155Z,3.35
2023-05-09T14:11:12.390Z,3.50
2023-05-09T14:13:41.004Z,3.30
2023-05-09T14:16:09.644Z,2.97
2023-05-09T14:18:37.898Z,3.08
2023-05-09T14:21:08.191Z,3.17
2023-05-09T14:23:36.361Z,2.60
2023-05-09T14:26:04.940Z,2.42
2023-05-09T14:28:33.222Z,2.50
2023-05-09T14:31:01.557Z,2.35
2023-05-09T14:33:29.705Z,2.60
2023-05-09T14:35:58.046Z,2.58
2023-05-09T14:38:28.056Z,2.20
2023-05-09T14:40:58.138Z,2.00
2023-05-09T14:43:26.432Z,1.95
2023-05-09T14:45:54.679Z,2.00
2023-05-09T14:48:23.637Z,1.83
2023-05-09T14:50:56.236Z,1.95
2023-05-09T14:53:25.757Z,1.80
2023-05-09T14:55:56.174Z,1.63
2023-05-09T14:58:24.843Z,1.70
2023-05-09T15:00:53.465Z,1.60
2023-05-09T15:03:22.281Z,1.70
2023-05-09T15:05:51.468Z,1.50
2023-05-09T15:08:19.603Z,1.27
2023-05-09T15:10:48.205Z,1.15
2023-05-09T15:13:17.882Z,1.05
2023-05-09T15:15:46.255Z,0.93
2023-05-09T15:18:16.521Z,1.00
2023-05-09T15:20:44.986Z,1.10
2023-05-09T15:23:13.678Z,1.00
2023-05-09T15:25:43.441Z,0.95
2023-05-09T15:28:12.201Z,0.88
2023-05-09T15:30:41.820Z,0.77
2023-05-09T15:33:10.281Z,0.80
2023-05-09T15:35:38.780Z,0.90
2023-05-09T15:38:07.904Z,0.80
2023-05-09T15:40:37.863Z,0.63
2023-05-09T15:43:08.557Z,0.60
2023-05-09T15:45:37.880Z,0.65
2023-05-09T15:48:07.758Z,0.57
2023-05-09T15:50:36.050Z,0.60
2023-05-09T15:53:04.356Z,0.73
2023-05-09T15:55:33.656Z,0.50
2023-05-09T15:58:02.773Z,0.57
2023-05-09T16:00:31.065Z,0.43
2023-05-09T16:03:02.499Z,0.55
2023-05-09T16:05:32.538Z,0.60
2023-05-09T16:08:06.477Z,0.52
2023-05-09T16:10:34.850Z,0.55
2023-05-09T16:13:03.475Z,0.60
2023-05-09T16:15:35.332Z,0.60
2023-05-09T16:18:03.554Z,0.50
2023-05-09T16:20:33.437Z,0.50
2023-05-09T16:23:01.967Z,0.68
2023-05-09T16:25:30.348Z,0.63
2023-05-09T16:27:59.625Z,0.60
2023-05-09T16:30:28.132Z,0.60
2023-05-09T16:32:59.754Z,0.70
2023-05-09T16:35:28.280Z,0.60
2023-05-09T16:37:58.819Z,0.60
2023-05-09T16:40:29.832Z,0.60
2023-05-09T16:42:58.554Z,0.55
2023-05-09T16:45:26.937Z,0.70
2023-05-09T16:47:55.776Z,0.75
2023-05-09T16:50:24.478Z,0.65
2023-05-09T16:52:53.182Z,0.70
2023-05-09T16:55:22.706Z,0.68
2023-05-09T16:57:50.906Z,0.70
2023-05-09T17:00:20.843Z,0.77
2023-05-09T17:02:49.219Z,0.77
2023-05-09T17:05:17.521Z,0.77
2023-05-09T17:07:46.385Z,0.70
2023-05-09T17:10:15.229Z,0.60
2023-05-09T17:12:45.045Z,0.65
2023-05-09T17:15:13.881Z,0.60
2023-05-09T17:17:42.189Z,0.60
2023-05-09T17:20:11.712Z,0.60
2023-05-09T17:22:40.068Z,0.50
2023-05-09T17:25:09.785Z,0.40
2023-05-09T17:27:37.904Z,0.50
2023-05-09T17:30:09.892Z,0.37
2023-05-09T17:32:38.241Z,0.50
2023-05-09T17:35:07.981Z,0.30
2023-05-09T17:37:36.657Z,0.50
2023-05-09T17:40:05.937Z,0.50
2023-05-09T17:42:34.528Z,0.47
2023-05-09T17:45:02.980Z,0.40
2023-05-09T17:47:32.970Z,0.50
2023-05-09T17:50:08.334Z,0.52
2023-05-09T17:52:36.982Z,0.55
2023-05-09T17:55:07.926Z,0.50
2023-05-09T17:57:39.610Z,0.50
2023-05-09T18:00:10.161Z,0.52
2023-05-09T18:02:40.627Z,0.40
2023-05-09T18:05:11.245Z,0.50
2023-05-09T18:07:41.141Z,0.38
2023-05-09T18:10:11.060Z,0.40
2023-05-09T18:12:39.503Z,0.40
2023-05-09T18:15:10.408Z,0.50
2023-05-09T18:17:46.233Z,0.50
2023-05-09T18:20:15.318Z,0.57
2023-05-09T18:22:44.015Z,0.65
2023-05-09T18:25:12.277Z,0.60
2023-05-09T18:27:40.746Z,0.75
2023-05-09T18:30:10.591Z,0.57
2023-05-09T18:32:40.436Z,0.60
2023-05-09T18:35:09.938Z,0.80
2023-05-09T18:37:38.225Z,0.52
2023-05-09T18:40:15.918Z,0.70
2023-05-09T18:42:44.519Z,0.70
2023-05-09T18:45:14.506Z,0.80
2023-05-09T18:47:44.143Z,0.68
2023-05-09T18:50:14.227Z,0.60
2023-05-09T18:52:46.120Z,0.80
2023-05-09T18:55:14.932Z,0.70
2023-05-09T18:57:46.703Z,0.70
2023-05-09T19:00:16.071Z,0.60
2023-05-09T19:02:45.772Z,0.80
2023-05-09T19:05:16.403Z,0.50
2023-05-09T19:07:44.901Z,0.53
2023-05-09T19:10:14.406Z,1.00
2023-05-09T19:12:43.372Z,0.80
2023-05-09T19:15:12.717Z,0.80
2023-05-09T19:17:40.887Z,0.80
2023-05-09T19:20:13.186Z,0.90
2023-05-09T19:22:46.235Z,1.00
2023-05-09T19:25:14.454Z,1.00
2023-05-09T19:27:42.525Z,1.17
2023-05-09T19:30:13.107Z,1.10
2023-05-09T19:32:41.337Z,0.90
2023-05-09T19:35:11.500Z,1.20
2023-05-09T19:37:39.773Z,1.00
2023-05-09T19:40:09.495Z,1.10
2023-05-09T19:42:37.875Z,1.13
2023-05-09T19:45:07.466Z,1.20
2023-05-09T19:47:35.847Z,1.00
2023-05-09T19:50:04.385Z,1.10
2023-05-09T19:52:36.300Z,1.30
2023-05-09T19:55:05.899Z,1.30
2023-05-09T19:57:34.238Z,1.10
2023-05-09T20:00:03.367Z,1.03
2023-05-09T20:02:31.842Z,1.20
2023-05-09T20:05:00.712Z,1.20
2023-05-09T20:08:21.370Z,1.30
2023-05-09T20:10:50.621Z,1.20
2023-05-09T20:13:31.027Z,1.23
2023-05-09T20:16:04.532Z,1.30
2023-05-09T20:18:43.171Z,1.50
2023-05-09T20:21:17.937Z,1.50
2023-05-09T20:23:59.975Z,1.27
2023-05-09T20:26:30.268Z,1.40
2023-05-09T20:29:01.689Z,1.60
2023-05-09T20:31:30.398Z,1.57
2023-05-09T20:34:01.373Z,1.50
2023-05-09T20:36:30.925Z,1.60
2023-05-09T20:39:01.371Z,1.43
2023-05-09T20:41:29.955Z,1.60
2023-05-09T20:44:03.739Z,1.67
2023-05-09T20:46:32.134Z,1.60
2023-05-09T20:49:00.997Z,1.60
2023-05-09T20:51:29.214Z,1.50
2023-05-09T20:53:57.671Z,1.80
2023-05-09T20:56:29.196Z,1.77
2023-05-09T20:58:59.882Z,1.67
2023-05-09T21:01:39.847Z,1.57
2023-05-09T21:04:09.754Z,1.50
2023-05-09T21:06:38.585Z,1.50
2023-05-09T21:09:09.173Z,1.60
2023-05-09T21:11:41.448Z,1.77
2023-05-09T21:14:10.380Z,1.80
2023-05-09T21:16:38.917Z,1.50
2023-05-09T21:19:08.766Z,1.83
2023-05-09T21:21:37.377Z,1.63
2023-05-09T21:24:09.296Z,1.70
2023-05-09T21:26:39.049Z,1.70
2023-05-09T21:29:07.431Z,1.73
2023-05-09T21:31:35.729Z,1.97
2023-05-09T21:34:09.732Z,1.73
2023-05-09T21:36:38.526Z,1.67
2023-05-09T21:39:09.458Z,1.90
2023-05-09T21:41:42.678Z,2.00
2023-05-09T21:44:12.278Z,1.87
2023-05-09T21:46:41.186Z,1.70
2023-05-09T21:49:09.389Z,1.73
2023-05-09T21:51:37.753Z,1.77
2023-05-09T21:54:06.735Z,1.83
2023-05-09T21:56:35.025Z,2.10
2023-05-09T21:59:04.716Z,2.20
2023-05-09T22:01:33.095Z,1.93
2023-05-09T22:04:02.245Z,2.00
2023-05-09T22:06:31.238Z,1.90
2023-05-09T22:08:59.520Z,2.13
2023-05-09T22:11:28.055Z,2.10
2023-05-09T22:13:56.421Z,2.20
2023-05-09T22:16:26.068Z,2.20
2023-05-09T22:18:54.862Z,2.10
2023-05-09T22:21:23.068Z,2.27
2023-05-09T22:23:51.572Z,2.23
2023-05-09T22:26:19.773Z,2.40
2023-05-09T22:28:48.236Z,2.40
2023-05-09T22:31:16.557Z,2.23
2023-05-09T22:33:46.195Z,2.53
2023-05-09T22:36:15.256Z,2.50
2023-05-09T22:38:44.808Z,2.80
2023-05-09T22:41:13.437Z,2.40
2023-05-09T22:43:41.761Z,2.80
2023-05-09T22:46:10.551Z,2.43
2023-05-09T22:48:38.749Z,2.70
2023-05-09T22:51:08.424Z,2.30
2023-05-09T22:53:36.604Z,2.33
2023-05-09T22:56:05.302Z,2.20
2023-05-09T22:58:33.517Z,1.80
2023-05-09T23:01:01.900Z,1.50
2023-05-09T23:03:30.232Z,1.43
2023-05-09T23:05:58.591Z,1.63
2023-05-09T23:08:28.103Z,1.63
2023-05-09T23:11:30.495Z,1.60
2023-05-09T23:25:37.126Z,1.67
2023-05-09T23:53:19.614Z,2.10
2023-05-09T23:55:49.099Z,2.60
2023-05-09T23:58:17.643Z,2.43
